CHP2 weather

Heurisko Pond Water Aerodrome
Belwood, Ontario, Canada

Public forecast

Using degrees Celsius for public forecast. Weather courtesy of forecast.io.

Closest aviation weather report (METAR) to Heurisko Pond Water Aerodrome

Closest report is Waterloo Airport, 18.7 nm (34.6 km) S. Retrieved 2019/10/17 02:00 UTC (20 minutes ago):

CYKF 170200Z AUTO 27014KT 9SM OVC015 07/05 A2950 RMK SLP994

Closest aviation forecast (TAF) to Heurisko Pond Water Aerodrome

Closest forecast is Waterloo Airport, 18.7 nm (34.6 km) S. Retrieved 2019-10-17 02:42 UTC (0 seconds ago):

TAF CYKF 170139Z 1702/1714 28010G20KT P6SM BKN015 OVC030 TEMPO 1702/1708 6SM -SHRA BR OVC012 BECMG 1702/1704 30015G30KT FM170800 31020G35KT P6SM OVC012 TEMPO 1708/1714 5SM -SHRA BR PROB30 1708/1714 OVC009 RMK FCST BASED ON AUTO OBS NXT FCST BY 170800Z